createdAt,value
2022-08-19T00:02:05.754Z,98852.00
2022-08-19T00:04:37.607Z,98837.00
2022-08-19T00:07:07.763Z,98849.00
2022-08-19T00:09:36.706Z,98870.00
2022-08-19T00:12:05.966Z,98882.00
2022-08-19T00:14:35.496Z,98889.00
2022-08-19T00:17:11.363Z,98881.00
2022-08-19T00:19:44.046Z,98867.00
2022-08-19T00:22:12.001Z,98888.00
2022-08-19T00:24:42.134Z,98871.00
2022-08-19T00:27:26.254Z,98873.00
2022-08-19T00:29:56.245Z,98875.00
2022-08-19T00:32:25.461Z,98867.00
2022-08-19T00:34:55.271Z,98872.00
2022-08-19T00:37:24.866Z,98869.00
2022-08-19T00:39:53.175Z,98846.00
2022-08-19T00:42:23.616Z,98859.00
2022-08-19T00:44:52.467Z,98865.00
2022-08-19T00:47:22.551Z,98854.00
2022-08-19T00:49:55.741Z,98855.00
2022-08-19T00:52:29.813Z,98853.00
2022-08-19T00:55:00.255Z,98880.00
2022-08-19T00:57:45.952Z,98880.00
2022-08-19T01:00:20.345Z,98884.00
2022-08-19T01:02:50.359Z,98857.00
2022-08-19T01:05:28.345Z,98856.00
2022-08-19T01:08:00.189Z,98872.00
2022-08-19T01:10:36.512Z,98869.00
2022-08-19T01:13:06.401Z,98873.00
2022-08-19T01:15:47.323Z,98868.00
2022-08-19T01:18:20.960Z,98869.00
2022-08-19T01:20:50.126Z,98864.00
2022-08-19T01:23:19.567Z,98866.00
2022-08-19T01:25:54.659Z,98853.00
2022-08-19T01:28:33.938Z,98854.00
2022-08-19T01:31:07.851Z,98848.00
2022-08-19T01:33:36.397Z,98852.00
2022-08-19T01:36:13.701Z,98860.00
2022-08-19T01:38:45.815Z,98862.00
2022-08-19T01:41:14.333Z,98869.00
2022-08-19T01:44:13.781Z,98860.00
2022-08-19T01:46:31.003Z,98850.00
2022-08-19T01:48:59.590Z,98861.00
2022-08-19T01:51:28.211Z,98865.00
2022-08-19T01:53:59.784Z,98873.00
2022-08-19T01:56:28.229Z,98870.00
2022-08-19T01:59:02.182Z,98863.00
2022-08-19T02:01:33.002Z,98878.00
2022-08-19T02:04:01.862Z,98857.00
2022-08-19T02:06:31.099Z,98887.00
2022-08-19T02:09:01.163Z,98880.00
2022-08-19T02:11:34.422Z,98870.00
2022-08-19T02:14:06.648Z,98861.00
2022-08-19T02:16:35.677Z,98869.00
2022-08-19T02:19:05.314Z,98857.00
2022-08-19T02:21:34.442Z,98850.00
2022-08-19T02:24:04.911Z,98842.00
2022-08-19T02:26:34.865Z,98838.00
2022-08-19T02:29:03.416Z,98835.00
2022-08-19T02:31:31.696Z,98837.00
2022-08-19T02:34:00.513Z,98836.00
2022-08-19T02:36:28.904Z,98835.00
2022-08-19T02:38:57.685Z,98825.00
2022-08-19T02:41:30.576Z,98820.00
2022-08-19T02:44:22.958Z,98809.00
2022-08-19T02:46:51.812Z,98817.00
2022-08-19T02:49:21.395Z,98807.00
2022-08-19T02:51:49.683Z,98835.00
2022-08-19T02:54:17.975Z,98842.00
2022-08-19T02:56:47.595Z,98845.00
2022-08-19T02:59:15.981Z,98856.00
2022-08-19T03:01:44.595Z,98858.00
2022-08-19T03:04:17.552Z,98850.00
2022-08-19T03:06:49.234Z,98838.00
2022-08-19T03:09:21.080Z,98847.00
2022-08-19T03:11:52.686Z,98861.00
2022-08-19T03:14:21.211Z,98867.00
2022-08-19T03:16:52.265Z,98891.00
2022-08-19T03:19:22.474Z,98901.00
2022-08-19T03:21:51.511Z,98906.00
2022-08-19T03:24:21.866Z,98899.00
2022-08-19T03:26:56.397Z,98903.00
2022-08-19T03:29:30.960Z,98900.00
2022-08-19T03:32:04.691Z,98904.00
2022-08-19T03:34:36.685Z,98885.00
2022-08-19T03:37:08.798Z,98846.00
2022-08-19T03:39:40.331Z,98876.00
2022-08-19T03:42:38.531Z,98856.00
2022-08-19T03:45:00.189Z,98889.00
2022-08-19T03:47:28.526Z,98880.00
2022-08-19T03:49:56.790Z,98881.00
2022-08-19T03:52:25.107Z,98866.00
2022-08-19T03:54:53.354Z,98868.00
2022-08-19T03:57:31.632Z,98867.00
2022-08-19T04:00:03.935Z,98868.00
2022-08-19T04:02:42.923Z,98864.00
2022-08-19T04:05:28.474Z,98874.00
2022-08-19T04:07:58.072Z,98861.00
2022-08-19T04:10:26.366Z,98874.00
2022-08-19T04:12:55.971Z,98886.00
2022-08-19T04:15:24.128Z,98883.00
2022-08-19T04:17:52.306Z,98896.00
2022-08-19T04:20:20.582Z,98862.00
2022-08-19T04:22:48.741Z,98873.00
2022-08-19T04:25:17.086Z,98876.00
2022-08-19T04:27:47.255Z,98878.00
2022-08-19T04:30:18.685Z,98880.00
2022-08-19T04:32:46.686Z,98875.00
2022-08-19T04:35:16.796Z,98871.00
2022-08-19T04:37:45.872Z,98862.00
2022-08-19T04:40:32.118Z,98866.00
2022-08-19T04:43:00.366Z,98874.00
2022-08-19T04:45:29.646Z,98881.00
2022-08-19T04:48:26.660Z,98887.00
2022-08-19T04:50:59.359Z,98888.00
2022-08-19T04:53:29.556Z,98893.00
2022-08-19T04:55:58.478Z,98890.00
2022-08-19T04:58:29.230Z,98888.00
2022-08-19T05:01:00.978Z,98882.00
2022-08-19T05:03:34.407Z,98886.00
2022-08-19T05:06:09.349Z,98890.00
2022-08-19T05:08:41.900Z,98877.00
2022-08-19T05:11:14.098Z,98893.00
2022-08-19T05:13:43.876Z,98894.00
2022-08-19T05:16:15.058Z,98895.00
2022-08-19T05:19:01.037Z,98882.00
2022-08-19T05:21:49.278Z,98887.00
2022-08-19T05:24:18.984Z,98887.00
2022-08-19T05:26:50.440Z,98892.00
2022-08-19T05:29:22.617Z,98893.00
2022-08-19T05:31:52.729Z,98896.00
2022-08-19T05:34:25.549Z,98898.00
2022-08-19T05:36:57.850Z,98900.00
2022-08-19T05:39:30.193Z,98914.00
2022-08-19T05:42:01.403Z,98911.00
2022-08-19T05:44:33.447Z,98921.00
2022-08-19T05:47:06.360Z,98911.00
2022-08-19T05:49:37.114Z,98932.00
2022-08-19T05:52:07.118Z,98938.00
2022-08-19T05:54:36.935Z,98956.00
2022-08-19T05:57:05.214Z,98960.00
2022-08-19T05:59:36.161Z,98969.00
2022-08-19T06:02:08.877Z,98973.00
2022-08-19T06:04:36.951Z,98979.00
2022-08-19T06:07:12.350Z,98992.00
2022-08-19T06:09:41.582Z,98997.00
2022-08-19T06:12:31.614Z,98995.00
2022-08-19T06:15:00.981Z,99004.00
2022-08-19T06:17:31.188Z,99013.00
2022-08-19T06:20:00.112Z,99018.00
2022-08-19T06:22:29.546Z,99023.00
2022-08-19T06:24:58.510Z,99001.00
2022-08-19T06:27:26.689Z,99035.00
2022-08-19T06:29:55.051Z,99040.00
2022-08-19T06:32:22.948Z,99033.00
2022-08-19T06:34:52.281Z,99056.00
2022-08-19T06:37:22.661Z,99069.00
2022-08-19T06:39:52.202Z,99063.00
2022-08-19T06:42:21.681Z,99061.00
2022-08-19T06:44:53.273Z,99037.00
2022-08-19T06:47:25.268Z,99054.00
2022-08-19T06:50:03.018Z,99064.00
2022-08-19T06:52:31.653Z,99058.00
2022-08-19T06:55:06.129Z,99061.00
2022-08-19T06:57:35.477Z,99064.00
2022-08-19T07:00:06.420Z,99074.00
2022-08-19T07:02:48.016Z,99072.00
2022-08-19T07:05:25.153Z,99064.00
2022-08-19T07:07:53.052Z,99071.00
2022-08-19T07:10:21.103Z,99054.00
2022-08-19T07:12:51.182Z,99070.00
2022-08-19T07:15:19.536Z,99064.00
2022-08-19T07:17:52.581Z,99068.00
2022-08-19T07:20:21.833Z,99066.00
2022-08-19T07:22:58.309Z,99068.00
2022-08-19T07:25:32.258Z,99067.00
2022-08-19T07:28:01.817Z,99069.00
2022-08-19T07:30:29.981Z,99070.00
2022-08-19T07:33:00.036Z,99064.00
2022-08-19T07:35:32.979Z,99078.00
2022-08-19T07:38:04.635Z,99065.00
2022-08-19T07:40:32.900Z,99076.00
2022-08-19T07:43:00.841Z,99078.00
2022-08-19T07:45:29.551Z,99079.00
2022-08-19T07:47:57.550Z,99070.00
2022-08-19T07:50:25.513Z,99069.00
2022-08-19T07:52:53.735Z,99087.00
2022-08-19T07:55:43.577Z,99092.00
2022-08-19T07:58:15.871Z,99087.00
2022-08-19T08:00:45.525Z,99091.00
2022-08-19T08:03:14.749Z,99085.00
2022-08-19T08:06:00.689Z,99094.00
2022-08-19T08:08:48.193Z,99097.00
2022-08-19T08:11:20.672Z,99106.00
2022-08-19T08:14:00.754Z,99107.00
2022-08-19T08:16:34.845Z,99098.00
2022-08-19T08:19:03.047Z,99079.00
2022-08-19T08:21:36.503Z,99103.00
2022-08-19T08:24:05.265Z,99112.00
2022-08-19T08:26:34.907Z,99110.00
2022-08-19T08:29:12.414Z,99110.00
2022-08-19T08:31:43.264Z,99114.00
2022-08-19T08:34:14.641Z,99119.00
2022-08-19T08:36:46.861Z,99110.00
2022-08-19T08:39:18.938Z,99109.00
2022-08-19T08:41:56.511Z,99108.00
2022-08-19T08:44:34.113Z,99105.00
2022-08-19T08:47:13.389Z,99110.00
2022-08-19T08:49:51.735Z,99110.00
2022-08-19T08:52:25.627Z,99115.00
2022-08-19T08:55:10.482Z,99118.00
2022-08-19T08:57:57.238Z,99118.00
2022-08-19T09:00:30.489Z,99113.00
2022-08-19T09:03:01.336Z,99112.00
2022-08-19T09:05:48.587Z,99113.00
2022-08-19T09:08:29.931Z,99107.00
2022-08-19T09:10:59.244Z,99126.00
2022-08-19T09:13:44.068Z,99123.00
2022-08-19T09:16:19.346Z,99124.00
2022-08-19T09:18:54.652Z,99129.00
2022-08-19T09:21:30.231Z,99121.00
2022-08-19T09:23:59.612Z,99108.00
2022-08-19T09:26:47.579Z,99110.00
2022-08-19T09:29:18.536Z,99100.00
2022-08-19T09:31:46.609Z,99104.00
2022-08-19T09:34:21.205Z,99104.00
2022-08-19T09:36:56.168Z,99101.00
2022-08-19T09:39:24.659Z,99104.00
2022-08-19T09:41:53.824Z,99096.00
2022-08-19T09:44:23.076Z,99105.00
2022-08-19T09:46:52.215Z,99102.00
2022-08-19T09:49:22.625Z,99103.00
2022-08-19T09:51:55.435Z,99102.00
2022-08-19T09:54:25.218Z,99098.00
2022-08-19T09:56:53.764Z,99105.00
2022-08-19T09:59:24.004Z,99109.00
2022-08-19T10:01:52.697Z,99104.00
2022-08-19T10:04:22.309Z,99106.00
2022-08-19T10:06:53.924Z,99118.00
2022-08-19T10:09:26.439Z,99112.00
2022-08-19T10:12:04.487Z,99116.00
2022-08-19T10:14:36.629Z,99108.00
2022-08-19T10:17:19.314Z,99100.00
2022-08-19T10:19:55.704Z,99096.00
2022-08-19T10:22:26.257Z,99078.00
2022-08-19T10:24:55.226Z,99105.00
2022-08-19T10:27:23.509Z,99112.00
2022-08-19T10:29:55.847Z,99109.00
2022-08-19T10:32:33.814Z,99113.00
2022-08-19T10:35:03.089Z,99126.00
2022-08-19T10:37:34.443Z,99127.00
2022-08-19T10:40:04.856Z,99126.00
2022-08-19T10:42:33.795Z,99134.00
2022-08-19T10:45:04.974Z,99130.00
2022-08-19T10:47:33.294Z,99134.00
2022-08-19T10:50:19.157Z,99135.00
2022-08-19T10:52:50.841Z,99126.00
2022-08-19T10:55:39.421Z,99128.00
2022-08-19T10:58:14.142Z,99135.00
2022-08-19T11:00:45.005Z,99119.00
2022-08-19T11:03:13.544Z,99143.00
2022-08-19T11:05:41.798Z,99150.00
2022-08-19T11:08:22.789Z,99153.00
2022-08-19T11:10:54.479Z,99162.00
2022-08-19T11:13:23.027Z,99162.00
2022-08-19T11:16:06.508Z,99179.00
2022-08-19T11:18:38.277Z,99163.00
2022-08-19T11:21:13.081Z,99177.00
2022-08-19T11:23:41.613Z,99181.00
2022-08-19T11:26:09.696Z,99181.00
2022-08-19T11:28:39.496Z,99170.00
2022-08-19T11:31:12.687Z,99161.00
2022-08-19T11:33:40.856Z,99152.00
2022-08-19T11:36:09.661Z,99142.00
2022-08-19T11:38:40.725Z,99147.00
2022-08-19T11:41:10.163Z,99153.00
2022-08-19T11:43:40.910Z,99172.00
2022-08-19T11:46:14.070Z,99169.00
2022-08-19T11:48:43.166Z,99170.00
2022-08-19T11:51:13.410Z,99169.00
2022-08-19T11:53:42.162Z,99173.00
2022-08-19T11:56:11.704Z,99177.00
2022-08-19T11:58:42.794Z,99157.00
2022-08-19T12:01:14.659Z,99165.00
2022-08-19T12:03:42.738Z,99164.00
2022-08-19T12:06:15.282Z,99170.00
2022-08-19T12:08:44.664Z,99171.00
2022-08-19T12:11:14.756Z,99153.00
2022-08-19T12:13:45.956Z,99166.00
2022-08-19T12:16:19.711Z,99161.00
2022-08-19T12:18:48.990Z,99162.00
2022-08-19T12:21:17.825Z,99160.00
2022-08-19T12:23:47.319Z,99158.00
2022-08-19T12:26:15.427Z,99153.00
2022-08-19T12:28:43.890Z,99161.00
2022-08-19T12:31:13.346Z,99168.00
2022-08-19T12:33:43.889Z,99184.00
2022-08-19T12:36:18.587Z,99198.00
2022-08-19T12:38:47.360Z,99203.00
2022-08-19T12:41:19.797Z,99201.00
2022-08-19T12:43:49.160Z,99179.00
2022-08-19T12:46:19.759Z,99195.00
2022-08-19T12:48:54.094Z,99198.00
2022-08-19T12:51:23.384Z,99204.00
2022-08-19T12:53:51.545Z,99212.00
2022-08-19T12:56:23.208Z,99206.00
2022-08-19T12:58:53.125Z,99185.00
2022-08-19T13:01:23.232Z,99204.00
2022-08-19T13:03:54.318Z,99202.00
2022-08-19T13:06:22.685Z,99209.00
2022-08-19T13:08:50.777Z,99209.00
2022-08-19T13:11:24.363Z,99196.00
2022-08-19T13:13:55.956Z,99198.00
2022-08-19T13:16:24.309Z,99195.00
2022-08-19T13:18:53.779Z,99196.00
2022-08-19T13:21:26.067Z,99199.00
2022-08-19T13:23:55.114Z,99199.00
2022-08-19T13:26:23.728Z,99204.00
2022-08-19T13:29:24.203Z,99198.00
2022-08-19T13:32:09.599Z,99169.00
2022-08-19T13:34:42.553Z,99190.00
2022-08-19T13:37:10.620Z,99190.00
2022-08-19T13:39:38.683Z,99189.00
2022-08-19T13:42:08.204Z,99191.00
2022-08-19T13:44:36.287Z,99197.00
2022-08-19T13:47:07.756Z,99177.00
2022-08-19T13:49:37.815Z,99199.00
2022-08-19T13:52:07.822Z,99202.00
2022-08-19T13:54:36.141Z,99208.00
2022-08-19T13:57:04.787Z,99198.00
2022-08-19T13:59:33.841Z,99200.00
2022-08-19T14:02:02.648Z,99190.00
2022-08-19T14:04:30.840Z,99180.00
2022-08-19T14:06:58.898Z,99178.00
2022-08-19T14:09:28.259Z,99151.00
2022-08-19T14:11:56.286Z,99172.00
2022-08-19T14:14:24.222Z,99177.00
2022-08-19T14:16:52.818Z,99175.00
2022-08-19T14:19:21.144Z,99178.00
2022-08-19T14:21:49.321Z,99179.00
2022-08-19T14:24:17.382Z,99181.00
2022-08-19T14:26:46.815Z,99181.00
2022-08-19T14:29:14.782Z,99183.00
2022-08-19T14:31:44.961Z,99186.00
2022-08-19T14:34:14.673Z,99187.00
2022-08-19T14:36:43.592Z,99184.00
2022-08-19T14:39:11.622Z,99188.00
2022-08-19T14:41:43.218Z,99192.00
2022-08-19T14:44:13.435Z,99193.00
2022-08-19T14:46:42.111Z,99188.00
2022-08-19T14:49:17.757Z,99189.00
2022-08-19T14:51:47.777Z,99198.00
2022-08-19T14:54:15.863Z,99201.00
2022-08-19T14:56:44.310Z,99196.00
2022-08-19T14:59:13.818Z,99195.00
2022-08-19T15:01:42.030Z,99196.00
2022-08-19T15:04:10.004Z,99198.00
2022-08-19T15:06:38.364Z,99192.00
2022-08-19T15:09:07.568Z,99188.00
2022-08-19T15:11:35.755Z,99194.00
2022-08-19T15:14:04.248Z,99196.00
2022-08-19T15:16:34.296Z,99192.00
2022-08-19T15:19:02.563Z,99196.00
2022-08-19T15:21:31.809Z,99192.00
2022-08-19T15:24:01.491Z,99196.00
2022-08-19T15:26:33.356Z,99196.00
2022-08-19T15:29:02.225Z,99190.00
2022-08-19T15:31:32.917Z,99193.00
2022-08-19T15:34:02.348Z,99185.00
2022-08-19T15:36:30.498Z,99194.00
2022-08-19T15:39:00.105Z,99191.00
2022-08-19T15:41:31.485Z,99188.00
2022-08-19T15:44:04.416Z,99186.00
2022-08-19T15:46:35.497Z,99197.00
2022-08-19T15:49:06.074Z,99211.00
2022-08-19T15:51:36.809Z,99191.00
2022-08-19T15:54:07.631Z,99187.00
2022-08-19T15:57:01.737Z,99185.00
2022-08-19T15:59:47.825Z,99172.00
2022-08-19T16:02:36.988Z,99167.00
2022-08-19T16:05:29.033Z,99147.00
2022-08-19T16:07:57.291Z,99157.00
2022-08-19T16:10:27.861Z,99166.00
2022-08-19T16:12:57.983Z,99158.00
2022-08-19T16:15:27.363Z,99169.00
2022-08-19T16:17:57.050Z,99166.00
2022-08-19T16:20:28.242Z,99171.00
2022-08-19T16:22:58.521Z,99174.00
2022-08-19T16:25:29.040Z,99164.00
2022-08-19T16:28:07.404Z,99180.00
2022-08-19T16:30:38.519Z,99183.00
2022-08-19T16:33:08.009Z,99168.00
2022-08-19T16:35:38.269Z,99175.00
2022-08-19T16:38:06.941Z,99177.00
2022-08-19T16:40:38.027Z,99173.00
2022-08-19T16:43:06.462Z,99185.00
2022-08-19T16:45:34.592Z,99175.00
2022-08-19T16:48:02.811Z,99173.00
2022-08-19T16:50:48.175Z,99166.00
2022-08-19T16:53:21.566Z,99178.00
2022-08-19T16:55:53.225Z,99172.00
2022-08-19T16:58:28.176Z,99176.00
2022-08-19T17:01:01.890Z,99187.00
2022-08-19T17:03:36.585Z,99162.00
2022-08-19T17:06:17.783Z,99180.00
2022-08-19T17:08:55.284Z,99175.00
2022-08-19T17:11:26.387Z,99177.00
2022-08-19T17:13:56.714Z,99175.00
2022-08-19T17:16:27.204Z,99178.00
2022-08-19T17:19:00.097Z,99165.00
2022-08-19T17:21:31.954Z,99171.00
2022-08-19T17:24:04.681Z,99178.00
2022-08-19T17:26:32.725Z,99157.00
2022-08-19T17:29:01.445Z,99185.00
2022-08-19T17:31:32.324Z,99179.00
2022-08-19T17:34:01.226Z,99183.00
2022-08-19T17:36:34.900Z,99190.00
2022-08-19T17:39:05.506Z,99197.00
2022-08-19T17:41:35.147Z,99188.00
2022-08-19T17:44:04.710Z,99178.00
2022-08-19T17:46:33.200Z,99175.00
2022-08-19T17:49:01.370Z,99169.00
2022-08-19T17:51:43.693Z,99169.00
2022-08-19T17:54:16.479Z,99169.00
2022-08-19T17:56:45.225Z,99178.00
2022-08-19T17:59:14.159Z,99193.00
2022-08-19T18:01:51.998Z,99206.00
2022-08-19T18:04:24.611Z,99194.00
2022-08-19T18:06:54.644Z,99193.00
2022-08-19T18:09:42.572Z,99199.00
2022-08-19T18:12:15.668Z,99190.00
2022-08-19T18:14:44.053Z,99211.00
2022-08-19T18:17:18.027Z,99213.00
2022-08-19T18:19:47.850Z,99215.00
2022-08-19T18:22:26.857Z,99217.00
2022-08-19T18:24:58.771Z,99228.00
2022-08-19T18:27:28.734Z,99232.00
2022-08-19T18:29:59.664Z,99245.00
2022-08-19T18:32:32.289Z,99258.00
2022-08-19T18:35:02.337Z,99269.00
2022-08-19T18:37:30.846Z,99265.00
2022-08-19T18:40:18.131Z,99275.00
2022-08-19T18:43:19.441Z,99278.00
2022-08-19T18:46:07.142Z,99281.00
2022-08-19T18:48:53.383Z,99282.00
2022-08-19T18:51:27.719Z,99268.00
2022-08-19T18:53:58.790Z,99264.00
2022-08-19T18:56:32.239Z,99265.00
2022-08-19T18:59:01.664Z,99275.00
2022-08-19T19:01:33.944Z,99279.00
2022-08-19T19:04:10.566Z,99287.00
2022-08-19T19:06:41.412Z,99272.00
2022-08-19T19:09:11.591Z,99273.00
2022-08-19T19:11:44.921Z,99260.00
2022-08-19T19:14:32.836Z,99265.00
2022-08-19T19:17:08.723Z,99256.00
2022-08-19T19:19:36.701Z,99258.00
2022-08-19T19:22:05.765Z,99253.00
2022-08-19T19:24:37.421Z,99255.00
2022-08-19T19:27:08.333Z,99253.00
2022-08-19T19:29:37.120Z,99243.00
2022-08-19T19:32:07.094Z,99250.00
2022-08-19T19:34:35.774Z,99259.00
2022-08-19T19:37:03.956Z,99266.00
2022-08-19T19:39:45.869Z,99263.00
2022-08-19T19:42:21.551Z,99261.00
2022-08-19T19:44:51.746Z,99264.00
2022-08-19T19:47:21.354Z,99260.00
2022-08-19T19:52:39.591Z,99273.00
2022-08-19T19:55:09.166Z,99267.00
2022-08-19T19:57:40.040Z,99263.00
2022-08-19T20:00:11.211Z,99258.00
2022-08-19T20:02:39.252Z,99256.00
2022-08-19T20:05:08.096Z,99258.00
2022-08-19T20:07:53.740Z,99258.00
2022-08-19T20:10:21.888Z,99254.00
2022-08-19T20:12:52.918Z,99247.00
2022-08-19T20:15:21.081Z,99247.00
2022-08-19T20:17:49.579Z,99255.00
2022-08-19T20:20:19.693Z,99252.00
2022-08-19T20:22:48.339Z,99252.00
2022-08-19T20:25:22.290Z,99249.00
2022-08-19T20:27:52.107Z,99251.00
2022-08-19T20:30:23.245Z,99239.00
2022-08-19T20:32:51.828Z,99234.00
2022-08-19T20:35:22.116Z,99234.00
2022-08-19T20:37:54.917Z,99236.00
2022-08-19T20:40:26.822Z,99235.00
2022-08-19T20:42:56.824Z,99240.00
2022-08-19T20:45:32.710Z,99239.00
2022-08-19T20:48:02.358Z,99250.00
2022-08-19T20:50:30.681Z,99260.00
2022-08-19T20:52:58.950Z,99278.00
2022-08-19T20:55:28.831Z,99269.00
2022-08-19T20:57:58.662Z,99271.00
2022-08-19T21:00:29.326Z,99274.00
2022-08-19T21:02:57.652Z,99256.00
2022-08-19T21:05:30.262Z,99286.00
2022-08-19T21:07:58.987Z,99284.00
2022-08-19T21:10:27.536Z,99270.00
2022-08-19T21:12:55.731Z,99309.00
2022-08-19T21:15:25.607Z,99300.00
2022-08-19T21:17:53.830Z,99300.00
2022-08-19T21:20:22.157Z,99296.00
2022-08-19T21:22:50.888Z,99283.00
2022-08-19T21:25:19.627Z,99258.00
2022-08-19T21:27:47.792Z,99277.00
2022-08-19T21:30:15.967Z,99270.00
2022-08-19T21:32:49.258Z,99260.00
2022-08-19T21:35:20.441Z,99264.00
2022-08-19T21:37:49.431Z,99253.00
2022-08-19T21:40:18.228Z,99252.00
2022-08-19T21:42:46.939Z,99283.00
2022-08-19T21:45:17.392Z,99282.00
2022-08-19T21:47:46.980Z,99291.00
2022-08-19T21:50:14.984Z,99298.00
2022-08-19T21:52:42.916Z,99294.00
2022-08-19T21:55:12.187Z,99298.00
2022-08-19T21:57:41.529Z,99289.00
2022-08-19T22:00:17.162Z,99288.00
2022-08-19T22:02:48.345Z,99286.00
2022-08-19T22:05:17.036Z,99292.00
2022-08-19T22:07:45.057Z,99289.00
2022-08-19T22:10:13.029Z,99281.00
2022-08-19T22:12:48.815Z,99277.00
2022-08-19T22:15:22.132Z,99278.00
2022-08-19T22:17:51.961Z,99272.00
2022-08-19T22:20:24.757Z,99244.00
2022-08-19T22:22:56.902Z,99270.00
2022-08-19T22:25:31.923Z,99252.00
2022-08-19T22:28:01.789Z,99288.00
2022-08-19T22:30:34.180Z,99285.00
2022-08-19T22:33:08.050Z,99269.00
2022-08-19T22:35:39.941Z,99259.00
2022-08-19T22:38:11.954Z,99255.00
2022-08-19T22:40:45.997Z,99272.00
2022-08-19T22:43:18.535Z,99272.00
2022-08-19T22:45:48.708Z,99266.00
2022-08-19T22:48:21.775Z,99253.00
2022-08-19T22:51:05.127Z,99261.00
2022-08-19T22:53:33.725Z,99264.00
2022-08-19T22:56:01.760Z,99250.00
2022-08-19T22:58:29.782Z,99254.00
2022-08-19T23:00:58.290Z,99261.00
2022-08-19T23:03:28.345Z,99266.00
2022-08-19T23:05:56.373Z,99269.00
2022-08-19T23:08:25.213Z,99266.00
2022-08-19T23:10:53.672Z,99252.00
2022-08-19T23:13:22.003Z,99261.00
2022-08-19T23:15:50.967Z,99266.00
2022-08-19T23:18:20.075Z,99258.00
2022-08-19T23:20:49.349Z,99273.00
2022-08-19T23:23:19.711Z,99264.00
2022-08-19T23:25:49.934Z,99275.00
2022-08-19T23:28:46.925Z,99283.00
2022-08-19T23:31:16.597Z,99274.00
2022-08-19T23:33:50.805Z,99278.00
2022-08-19T23:36:22.898Z,99277.00
2022-08-19T23:38:52.909Z,99283.00
2022-08-19T23:41:24.169Z,99279.00
2022-08-19T23:43:54.878Z,99279.00
2022-08-19T23:46:28.256Z,99273.00
2022-08-19T23:48:57.347Z,99266.00
2022-08-19T23:51:27.106Z,99268.00
2022-08-19T23:53:55.231Z,99264.00
2022-08-19T23:56:23.330Z,99259.00
2022-08-19T23:58:51.255Z,99265.00
